Česky Dansk Deutsch English Español Suomi Français Magyar Italiano Nederlands norsk Polski Português svenska Türkçe

 

Het Weer

Muenster / Osnabrueck (Duitsland)

11:20, 15 augustus 2016 (GMT)

NWNNE
WE
SWSSE
Thuis            
Muenster / Osnabrueck Hopsten Rheine-Bentlage Guetersloh Nordhorn Twenthe Diepholz Dortmund / Wickede Meppen-Mil Paderborn / Lippstadt Bueckeburg Essen Kalkar Duesseldorf Laarbruch Niederrhein Wunstorf Deelen Bremen Lemwerder Monchengladbach Groningen Airport Eelde Hannover

Om een weerknop op uw website of weblog te plaatsen, copieer onderstaande code en plak die in uw pagina. In het eerste vakje staat HTML-code, in het tweede vakje UBB-code.


Add to Google

Details

Windsnelheid:2 bf, 4 kn, 2.1 m/s, 4.6 miles/h, 7.4 km/h
Windrichting:NNW, 330° - O, 090°
Zicht:Meer dan 10000 m, 10 km, 32800 ft, 6.2 miles
Wolken:Licht bewolkt op 4500 ft, 1372 m
Zwaar bewolkt op 6000 ft, 1829 m
Temperatuur:20°C, 68°F
Dauwpunt:8°C, 46°F
Luchtdruk:1024 hPa, 768.1 mmHg, 30.24 inHg, 1.011 atm
Relative luchtvochtigheid:45.9 %
METAR:EDDG 151120Z 03004KT 330V090 9999 FEW045 BKN060 20/08 Q1024 NOSIG

Snelkoppelingen

Actuele weersinformatie van de hele wereld. Voeg locaties toe met het plus (+) symbool. Deze snelkoppelingen kunnen worden toegevoegd aan Google.

Lid van de Technetium groep

website free tracking
StatCounter NetStat W3C Validator

09-08-2022 03:02:22
astro.technetium.be money.technetium.be phote.technetium.be tafeltennistafel.technetium.be www.ligfiets.net